Time;durP1;ratioP1;P1;durP2;ratioP2;P2;SDS_P1;SDS_P2;PMS_P1;PMS_P2;Temp;Humidity;BMP_temperature;BMP_pressure;BME280_temperature;BME280_humidity;BME280_pressure;Samples;Min_cycle;Max_cycle;Signal;HPM_P1;HPM_P2
2023/06/02 00:00:38;;;;;;;;;;;;;;;;;;5055948;28;20007;-61
2023/06/02 00:03:04;;;;;;;;;;;;;;;;;;5068523;28;19920;-60
2023/06/02 00:05:31;;;;;;;;;;;;;;;;;;5071603;28;19955;-60
2023/06/02 00:07:57;;;;;;;;;;;;;;;;;;5073931;28;20453;-61
2023/06/02 00:10:23;;;;;;;;;;;;;;;;;;5056607;28;20360;-61
2023/06/02 00:12:49;;;;;;;;;;;;;;;;;;5054761;28;19944;-60
2023/06/02 00:15:15;;;;;;;;;;;;;;;;;;5054686;28;20004;-61
2023/06/02 00:17:41;;;;;;;;;;;;;;;;;;5061035;28;19913;-60
2023/06/02 00:20:07;;;;;;;;;;;;;;;;;;5066021;28;19952;-60
2023/06/02 00:22:33;;;;;;;;;;;;;;;;;;5065701;28;20356;-61
2023/06/02 00:24:58;;;;;;;;;;;;;;;;;;5063493;28;19908;-60
2023/06/02 00:27:24;;;;;;;;;;;;;;;;;;5061962;28;20016;-60
2023/06/02 00:29:50;;;;;;;;;;;;;;;;;;5062733;28;20365;-60
2023/06/02 00:32:16;;;;;;;;;;;;;;;;;;5066442;28;19913;-60
2023/06/02 00:34:42;;;;;;;;;;;;;;;;;;5070275;28;20390;-61
2023/06/02 00:37:08;;;;;;;;;;;;;;;;;;5093781;28;19908;-60
2023/06/02 00:39:34;;;;;;;;;;;;;;;;;;5067761;28;19995;-60
2023/06/02 00:42:00;;;;;;;;;;;;;;;;;;5068592;28;19921;-60
2023/06/02 00:44:26;;;;;;;;;;;;;;;;;;5054084;28;20449;-60
2023/06/02 00:46:51;;;;;;;;;;;;;;;;;;5054482;28;20011;-60
2023/06/02 00:49:17;;;;;;;;;;;;;;;;;;5054217;28;20302;-60
2023/06/02 00:51:45;;;;;;;;;;;;;;;;;;5064350;28;20368;-60
2023/06/02 00:54:13;;;;;;;;;;;;;;;;;;5068382;28;19966;-60
2023/06/02 00:56:39;;;;;;;;;;;;;;;;;;5053202;28;19915;-60
2023/06/02 00:59:05;;;;;;;;;;;;;;;;;;5070992;28;20307;-60
2023/06/02 01:01:31;;;;;;;;;;;;;;;;;;5055602;28;19913;-59
2023/06/02 01:03:57;;;;;;;;;;;;;;;;;;5071876;28;19951;-59
2023/06/02 01:06:23;;;;;;;;;;;;;;;;;;5067555;28;20357;-60
2023/06/02 01:08:49;;;;;;;;;;;;;;;;;;5061542;28;20007;-59
2023/06/02 01:11:15;;;;;;;;;;;;;;;;;;5058014;28;19935;-59
2023/06/02 01:13:41;;;;;;;;;;;;;;;;;;5066120;28;19912;-60
2023/06/02 01:16:07;;;;;;;;;;;;;;;;;;5062130;28;19975;-59
2023/06/02 01:18:35;;;;;;;;;;;;;;;;;;5072167;28;19991;-60
2023/06/02 01:21:01;;;;;;;;;;;;;;;;;;5054626;28;20373;-59
2023/06/02 01:23:29;;;;;;;;;;;;;;;;;;5058165;28;20273;-59
2023/06/02 01:25:55;;;;;;;;;;;;;;;;;;5053085;28;20361;-59
2023/06/02 01:28:21;;;;;;;;;;;;;;;;;;5054188;28;19919;-59
2023/06/02 01:30:46;;;;;;;;;;;;;;;;;;5066920;28;20288;-59
2023/06/02 01:33:12;;;;;;;;;;;;;;;;;;5064917;28;19970;-59
2023/06/02 01:35:38;;;;;;;;;;;;;;;;;;5065549;28;20066;-59
2023/06/02 01:38:05;;;;;;;;;;;;;;;;;;5055964;28;20396;-60
2023/06/02 01:40:31;;;;;;;;;;;;;;;;;;5066134;28;19922;-59
2023/06/02 01:42:57;;;;;;;;;;;;;;;;;;5062633;28;20368;-59
2023/06/02 01:45:23;;;;;;;;;;;;;;;;;;5054643;28;20004;-59
2023/06/02 01:47:49;;;;;;;;;;;;;;;;;;5060217;28;19956;-59
2023/06/02 01:50:15;;;;;;;;;;;;;;;;;;5063392;28;19967;-59
2023/06/02 01:52:41;;;;;;;;;;;;;;;;;;5070701;28;19916;-59
2023/06/02 01:55:06;;;;;;;;;;;;;;;;;;5064471;28;19916;-60
2023/06/02 01:57:33;;;;;;;;;;;;;;;;;;5055439;28;20406;-59
2023/06/02 01:59:59;;;;;;;;;;;;;;;;;;5064000;28;20807;-59
2023/06/02 02:02:25;;;;;;;;;;;;;;;;;;5068838;28;19995;-60
2023/06/02 02:04:51;;;;;;;;;;;;;;;;;;5072453;28;20003;-59
2023/06/02 02:07:19;;;;;;;;;;;;;;;;;;5072653;28;20284;-59
2023/06/02 02:09:45;;;;;;;;;;;;;;;;;;5069020;28;19912;-60
2023/06/02 02:12:11;;;;;;;;;;;;;;;;;;5069308;28;19924;-59
2023/06/02 02:14:37;;;;;;;;;;;;;;;;;;5065847;28;19972;-59
2023/06/02 02:17:03;;;;;;;;;;;;;;;;;;5063111;28;19974;-60
2023/06/02 02:19:31;;;;;;;;;;;;;;;;;;5073720;28;19956;-59
2023/06/02 02:21:57;;;;;;;;;;;;;;;;;;5067594;28;19917;-59
2023/06/02 02:24:23;;;;;;;;;;;;;;;;;;5058583;28;20623;-59
2023/06/02 02:26:48;;;;;;;;;;;;;;;;;;5071231;28;19965;-59
2023/06/02 02:29:14;;;;;;;;;;;;;;;;;;5065829;28;19974;-59
2023/06/02 02:31:40;;;;;;;;;;;;;;;;;;5065518;28;19917;-59
2023/06/02 02:34:07;;;;;;;;;;;;;;;;;;5060241;28;19912;-60
2023/06/02 02:36:32;;;;;;;;;;;;;;;;;;5067563;28;19932;-59
2023/06/02 02:38:58;;;;;;;;;;;;;;;;;;5076156;28;20357;-59
2023/06/02 02:41:24;;;;;;;;;;;;;;;;;;5065937;28;19995;-60
2023/06/02 02:43:50;;;;;;;;;;;;;;;;;;5072139;28;19909;-60
2023/06/02 02:46:16;;;;;;;;;;;;;;;;;;5065605;28;19920;-59
2023/06/02 02:48:42;;;;;;;;;;;;;;;;;;5061868;28;20011;-59
2023/06/02 02:51:08;;;;;;;;;;;;;;;;;;5066458;28;19913;-59
2023/06/02 02:53:34;;;;;;;;;;;;;;;;;;5068519;28;19951;-59
2023/06/02 02:56:00;;;;;;;;;;;;;;;;;;5058780;28;19959;-59
2023/06/02 02:58:26;;;;;;;;;;;;;;;;;;5051943;28;19956;-59
2023/06/02 03:00:52;;;;;;;;;;;;;;;;;;5060601;28;19916;-59
2023/06/02 03:03:20;;;;;;;;;;;;;;;;;;5067610;28;19913;-59
2023/06/02 03:05:47;;;;;;;;;;;;;;;;;;5061974;28;19919;-59
2023/06/02 03:08:15;;;;;;;;;;;;;;;;;;5051324;28;19912;-59
2023/06/02 03:10:42;;;;;;;;;;;;;;;;;;5070376;28;19913;-59
2023/06/02 03:13:08;;;;;;;;;;;;;;;;;;5068186;28;20358;-59
2023/06/02 03:15:33;;;;;;;;;;;;;;;;;;5044501;28;19964;-59
2023/06/02 03:18:00;;;;;;;;;;;;;;;;;;5055000;28;20007;-59
2023/06/02 03:20:25;;;;;;;;;;;;;;;;;;5052775;28;19984;-59
2023/06/02 03:22:51;;;;;;;;;;;;;;;;;;5067845;28;20389;-59
2023/06/02 03:25:21;;;;;;;;;;;;;;;;;;5069714;28;20007;-59
2023/06/02 03:27:47;;;;;;;;;;;;;;;;;;5070923;28;19913;-59
2023/06/02 03:30:12;;;;;;;;;;;;;;;;;;5069895;28;20399;-59
2023/06/02 03:32:38;;;;;;;;;;;;;;;;;;5068435;28;19925;-60
2023/06/02 03:35:04;;;;;;;;;;;;;;;;;;5069468;28;20330;-59
2023/06/02 03:37:30;;;;;;;;;;;;;;;;;;5070543;28;20003;-59
2023/06/02 03:39:56;;;;;;;;;;;;;;;;;;5069018;28;19920;-59
2023/06/02 03:42:22;;;;;;;;;;;;;;;;;;5074666;28;19951;-59
2023/06/02 03:44:48;;;;;;;;;;;;;;;;;;5064704;28;19912;-59
2023/06/02 03:47:15;;;;;;;;;;;;;;;;;;5074488;28;19920;-59
2023/06/02 03:49:41;;;;;;;;;;;;;;;;;;5072857;28;19913;-59
2023/06/02 03:52:07;;;;;;;;;;;;;;;;;;5074284;28;20372;-59
2023/06/02 03:54:33;;;;;;;;;;;;;;;;;;5073173;28;19959;-60
2023/06/02 03:56:59;;;;;;;;;;;;;;;;;;5068854;28;19959;-60
2023/06/02 03:59:25;;;;;;;;;;;;;;;;;;5061219;28;19917;-59
2023/06/02 04:01:51;;;;;;;;;;;;;;;;;;5062919;28;20010;-60
2023/06/02 04:04:17;;;;;;;;;;;;;;;;;;5044348;28;19916;-59
2023/06/02 04:06:43;;;;;;;;;;;;;;;;;;5072339;28;19922;-59
2023/06/02 04:09:09;;;;;;;;;;;;;;;;;;5072290;28;20533;-59
2023/06/02 04:11:35;;;;;;;;;;;;;;;;;;5069656;28;19913;-60
2023/06/02 04:14:01;;;;;;;;;;;;;;;;;;5065706;28;20007;-60
2023/06/02 04:16:27;;;;;;;;;;;;;;;;;;5057906;28;20392;-59
2023/06/02 04:18:53;;;;;;;;;;;;;;;;;;5067593;28;19969;-60
2023/06/02 04:21:19;;;;;;;;;;;;;;;;;;5065431;28;19913;-60
2023/06/02 04:23:45;;;;;;;;;;;;;;;;;;5069478;28;20288;-59
2023/06/02 04:26:11;;;;;;;;;;;;;;;;;;5058109;28;21491;-59
2023/06/02 04:28:37;;;;;;;;;;;;;;;;;;5061571;28;19921;-59
2023/06/02 04:31:05;;;;;;;;;;;;;;;;;;5054948;28;19908;-59
2023/06/02 04:33:31;;;;;;;;;;;;;;;;;;5071985;28;20379;-59
2023/06/02 04:35:57;;;;;;;;;;;;;;;;;;5066234;28;19916;-60
2023/06/02 04:38:24;;;;;;;;;;;;;;;;;;5068646;28;19987;-59
2023/06/02 04:40:50;;;;;;;;;;;;;;;;;;5072268;28;20444;-59
2023/06/02 04:43:16;;;;;;;;;;;;;;;;;;5070707;28;20376;-60
2023/06/02 04:45:47;;;;;;;;;;;;;;;;;;5066678;28;19951;-59
2023/06/02 04:48:12;;;;;;;;;;;;;;;;;;5073825;28;19996;-60
2023/06/02 04:50:38;;;;;;;;;;;;;;;;;;5073045;28;19936;-60
2023/06/02 04:53:04;;;;;;;;;;;;;;;;;;5073516;28;19918;-59
2023/06/02 04:55:31;;;;;;;;;;;;;;;;;;5066162;28;20731;-60
2023/06/02 04:57:56;;;;;;;;;;;;;;;;;;5067593;28;19974;-59
2023/06/02 05:00:23;;;;;;;;;;;;;;;;;;5062904;28;19916;-59
2023/06/02 05:02:48;;;;;;;;;;;;;;;;;;5073188;28;19924;-60
2023/06/02 05:05:14;;;;;;;;;;;;;;;;;;5067056;28;19912;-59
2023/06/02 05:07:40;;;;;;;;;;;;;;;;;;5060376;28;20280;-60
2023/06/02 05:10:06;;;;;;;;;;;;;;;;;;5068064;28;19967;-60
2023/06/02 05:12:32;;;;;;;;;;;;;;;;;;5067125;28;20008;-60
2023/06/02 05:14:58;;;;;;;;;;;;;;;;;;5064517;28;19971;-59
2023/06/02 05:17:24;;;;;;;;;;;;;;;;;;5065440;28;20443;-60
2023/06/02 05:19:50;;;;;;;;;;;;;;;;;;5055597;28;19917;-60
2023/06/02 05:22:16;;;;;;;;;;;;;;;;;;5057351;28;19927;-59
2023/06/02 05:24:42;;;;;;;;;;;;;;;;;;5066625;28;19963;-60
2023/06/02 05:27:08;;;;;;;;;;;;;;;;;;5066705;28;19912;-60
2023/06/02 05:29:34;;;;;;;;;;;;;;;;;;5062048;28;20792;-60
2023/06/02 05:32:00;;;;;;;;;;;;;;;;;;5060497;28;19982;-60
2023/06/02 05:34:25;;;;;;;;;;;;;;;;;;5054818;28;19948;-60
2023/06/02 05:36:51;;;;;;;;;;;;;;;;;;5064978;28;19919;-59
2023/06/02 05:39:17;;;;;;;;;;;;;;;;;;5063564;28;19919;-60
2023/06/02 05:41:43;;;;;;;;;;;;;;;;;;5062749;28;19952;-59
2023/06/02 05:44:09;;;;;;;;;;;;;;;;;;5060412;28;19913;-60
2023/06/02 05:46:35;;;;;;;;;;;;;;;;;;5064063;28;20284;-60
2023/06/02 05:49:01;;;;;;;;;;;;;;;;;;5053392;28;19951;-60
2023/06/02 05:51:27;;;;;;;;;;;;;;;;;;5053861;28;19924;-59
2023/06/02 05:53:53;;;;;;;;;;;;;;;;;;5053775;28;19957;-60
2023/06/02 05:56:19;;;;;;;;;;;;;;;;;;5072205;28;19952;-60
2023/06/02 05:58:46;;;;;;;;;;;;;;;;;;5052163;28;19916;-60
2023/06/02 06:01:12;;;;;;;;;;;;;;;;;;5061034;28;19909;-59
2023/06/02 06:03:38;;;;;;;;;;;;;;;;;;5067821;28;19971;-60
2023/06/02 06:06:04;;;;;;;;;;;;;;;;;;5074326;28;20038;-59
2023/06/02 06:08:30;;;;;;;;;;;;;;;;;;5072597;28;19944;-60
2023/06/02 06:10:56;;;;;;;;;;;;;;;;;;5070649;28;19952;-60
2023/06/02 06:13:22;;;;;;;;;;;;;;;;;;5072530;28;20327;-60
2023/06/02 06:15:48;;;;;;;;;;;;;;;;;;5087535;28;19968;-60
2023/06/02 06:18:14;;;;;;;;;;;;;;;;;;5092206;28;19920;-60
2023/06/02 06:20:40;;;;;;;;;;;;;;;;;;5076053;28;19974;-60
2023/06/02 06:23:05;;;;;;;;;;;;;;;;;;5092691;28;19956;-60
2023/06/02 06:25:31;;;;;;;;;;;;;;;;;;5083813;28;19920;-60
2023/06/02 06:27:57;;;;;;;;;;;;;;;;;;5052406;28;19915;-59
2023/06/02 06:30:23;;;;;;;;;;;;;;;;;;5051603;28;19909;-60
2023/06/02 06:32:49;;;;;;;;;;;;;;;;;;5059920;28;20418;-60
2023/06/02 06:35:15;;;;;;;;;;;;;;;;;;5072505;28;20050;-60
2023/06/02 06:37:41;;;;;;;;;;;;;;;;;;5061583;28;20284;-60
2023/06/02 06:40:07;;;;;;;;;;;;;;;;;;5056079;28;19920;-60
2023/06/02 06:42:33;;;;;;;;;;;;;;;;;;5073276;28;19954;-60
2023/06/02 06:44:58;;;;;;;;;;;;;;;;;;5072018;28;19908;-60
2023/06/02 06:47:24;;;;;;;;;;;;;;;;;;5072421;28;19908;-60
2023/06/02 06:49:51;;;;;;;;;;;;;;;;;;5082575;28;19922;-60
2023/06/02 06:52:18;;;;;;;;;;;;;;;;;;5079895;28;20292;-60
2023/06/02 06:54:44;;;;;;;;;;;;;;;;;;5049926;28;19924;-60
2023/06/02 06:57:10;;;;;;;;;;;;;;;;;;5059114;28;19944;-60
2023/06/02 06:59:36;;;;;;;;;;;;;;;;;;5065172;28;19924;-61
2023/06/02 07:02:02;;;;;;;;;;;;;;;;;;5066887;28;19957;-60
2023/06/02 07:04:27;;;;;;;;;;;;;;;;;;5071534;28;19999;-60
2023/06/02 07:06:53;;;;;;;;;;;;;;;;;;5063537;28;19999;-61
2023/06/02 07:09:19;;;;;;;;;;;;;;;;;;5068593;28;19916;-60
2023/06/02 07:11:45;;;;;;;;;;;;;;;;;;5064810;28;20390;-60
2023/06/02 07:14:11;;;;;;;;;;;;;;;;;;5065459;28;19913;-60
2023/06/02 07:16:37;;;;;;;;;;;;;;;;;;5064313;28;20027;-60
2023/06/02 07:19:03;;;;;;;;;;;;;;;;;;5067675;28;19954;-60
2023/06/02 07:21:29;;;;;;;;;;;;;;;;;;5061766;28;19920;-60
2023/06/02 07:23:55;;;;;;;;;;;;;;;;;;5060374;28;19920;-60
2023/06/02 07:26:21;;;;;;;;;;;;;;;;;;5054921;28;19924;-60
2023/06/02 07:28:47;;;;;;;;;;;;;;;;;;5069853;28;19952;-60
2023/06/02 07:31:13;;;;;;;;;;;;;;;;;;5065389;28;20021;-60
2023/06/02 07:33:39;;;;;;;;;;;;;;;;;;5057711;28;19967;-60
2023/06/02 07:36:05;;;;;;;;;;;;;;;;;;5065186;28;19917;-60
2023/06/02 07:38:31;;;;;;;;;;;;;;;;;;5070034;28;19959;-60
2023/06/02 07:40:57;;;;;;;;;;;;;;;;;;5055636;28;19982;-60
2023/06/02 07:43:23;;;;;;;;;;;;;;;;;;5056657;28;19962;-60
2023/06/02 07:45:49;;;;;;;;;;;;;;;;;;5055744;28;19948;-60
2023/06/02 07:48:15;;;;;;;;;;;;;;;;;;5055434;28;20012;-60
2023/06/02 07:50:41;;;;;;;;;;;;;;;;;;5057469;28;19932;-61
2023/06/02 07:53:07;;;;;;;;;;;;;;;;;;5063136;28;19960;-61
2023/06/02 07:55:32;;;;;;;;;;;;;;;;;;5057730;28;19931;-60
2023/06/02 07:57:58;;;;;;;;;;;;;;;;;;5087865;28;19915;-61
2023/06/02 08:00:24;;;;;;;;;;;;;;;;;;5078484;28;20269;-60
2023/06/02 08:02:51;;;;;;;;;;;;;;;;;;5076935;28;19952;-60
2023/06/02 08:05:17;;;;;;;;;;;;;;;;;;5056780;28;19916;-60
2023/06/02 08:07:43;;;;;;;;;;;;;;;;;;5076143;28;19918;-60
2023/06/02 08:10:09;;;;;;;;;;;;;;;;;;5063973;28;19913;-61
2023/06/02 08:12:35;;;;;;;;;;;;;;;;;;5063830;28;19936;-61
2023/06/02 08:15:01;;;;;;;;;;;;;;;;;;5070903;28;20671;-61
2023/06/02 08:17:29;;;;;;;;;;;;;;;;;;5060515;28;20454;-62
2023/06/02 08:19:55;;;;;;;;;;;;;;;;;;5074194;28;20388;-59
2023/06/02 08:22:21;;;;;;;;;;;;;;;;;;5070377;28;20011;-61
2023/06/02 08:24:47;;;;;;;;;;;;;;;;;;5055154;28;19915;-61
2023/06/02 08:27:14;;;;;;;;;;;;;;;;;;5073204;28;20122;-61
2023/06/02 08:29:40;;;;;;;;;;;;;;;;;;5069289;28;20281;-61
2023/06/02 08:32:06;;;;;;;;;;;;;;;;;;5054978;28;20381;-60
2023/06/02 08:34:32;;;;;;;;;;;;;;;;;;5056012;28;19947;-60
2023/06/02 08:37:00;;;;;;;;;;;;;;;;;;5044981;28;19917;-60
2023/06/02 08:39:26;;;;;;;;;;;;;;;;;;5067903;28;20288;-60
2023/06/02 08:41:52;;;;;;;;;;;;;;;;;;5071449;28;20376;-60
2023/06/02 08:44:18;;;;;;;;;;;;;;;;;;5072945;28;20007;-60
2023/06/02 08:46:44;;;;;;;;;;;;;;;;;;5070680;28;19920;-60
2023/06/02 08:49:14;;;;;;;;;;;;;;;;;;5094069;28;19990;-60
2023/06/02 08:51:40;;;;;;;;;;;;;;;;;;5080613;28;19952;-60
2023/06/02 08:54:06;;;;;;;;;;;;;;;;;;5072154;28;19955;-60
2023/06/02 08:56:32;;;;;;;;;;;;;;;;;;5068199;28;19963;-60
2023/06/02 08:58:58;;;;;;;;;;;;;;;;;;5073466;28;20338;-60
2023/06/02 09:01:24;;;;;;;;;;;;;;;;;;5069898;28;20003;-60
2023/06/02 09:03:50;;;;;;;;;;;;;;;;;;5065865;28;20190;-60
2023/06/02 09:06:16;;;;;;;;;;;;;;;;;;5090214;28;19916;-60
2023/06/02 09:08:42;;;;;;;;;;;;;;;;;;5069113;28;19912;-60
2023/06/02 09:11:08;;;;;;;;;;;;;;;;;;5072119;28;19909;-59
2023/06/02 09:13:36;;;;;;;;;;;;;;;;;;5073619;28;20365;-60
2023/06/02 09:16:02;;;;;;;;;;;;;;;;;;5070769;28;19921;-60
2023/06/02 09:18:28;;;;;;;;;;;;;;;;;;5052720;28;19959;-60
2023/06/02 09:20:54;;;;;;;;;;;;;;;;;;5057707;28;20008;-59
2023/06/02 09:23:20;;;;;;;;;;;;;;;;;;5059228;28;19920;-60
2023/06/02 09:25:45;;;;;;;;;;;;;;;;;;5055488;28;19967;-60
2023/06/02 09:28:11;;;;;;;;;;;;;;;;;;5065043;28;20349;-60
2023/06/02 09:30:37;;;;;;;;;;;;;;;;;;5060218;28;19923;-60
2023/06/02 09:33:03;;;;;;;;;;;;;;;;;;5069522;28;19909;-60
2023/06/02 09:35:29;;;;;;;;;;;;;;;;;;5072199;28;19955;-59
2023/06/02 09:37:57;;;;;;;;;;;;;;;;;;5069961;28;19912;-60
2023/06/02 09:40:22;;;;;;;;;;;;;;;;;;5068431;28;20332;-60
2023/06/02 09:42:48;;;;;;;;;;;;;;;;;;5064599;28;19917;-60
2023/06/02 09:45:14;;;;;;;;;;;;;;;;;;5073017;28;19989;-60
2023/06/02 09:47:43;;;;;;;;;;;;;;;;;;5073035;28;20408;-60
2023/06/02 09:50:09;;;;;;;;;;;;;;;;;;5069934;28;19917;-59
2023/06/02 09:52:35;;;;;;;;;;;;;;;;;;5066526;28;19912;-60
2023/06/02 09:55:01;;;;;;;;;;;;;;;;;;5070712;28;20382;-61
2023/06/02 09:57:27;;;;;;;;;;;;;;;;;;5072823;28;19953;-61
2023/06/02 09:59:53;;;;;;;;;;;;;;;;;;5071737;28;20041;-59
2023/06/02 10:02:18;;;;;;;;;;;;;;;;;;5072425;28;20416;-61
2023/06/02 10:04:45;;;;;;;;;;;;;;;;;;5072711;28;19953;-60
2023/06/02 10:07:13;;;;;;;;;;;;;;;;;;5070587;28;19913;-60
2023/06/02 10:09:39;;;;;;;;;;;;;;;;;;5068297;28;20604;-60
2023/06/02 10:12:05;;;;;;;;;;;;;;;;;;5066947;28;19912;-60
2023/06/02 10:14:31;;;;;;;;;;;;;;;;;;5072384;28;20003;-60
2023/06/02 10:16:57;;;;;;;;;;;;;;;;;;5070938;28;19916;-60
2023/06/02 10:19:23;;;;;;;;;;;;;;;;;;5069504;28;19998;-61
2023/06/02 10:21:49;;;;;;;;;;;;;;;;;;5068459;28;19920;-60
2023/06/02 10:24:15;;;;;;;;;;;;;;;;;;5072014;28;19922;-60
2023/06/02 10:26:41;;;;;;;;;;;;;;;;;;5066934;28;19979;-60
2023/06/02 10:29:08;;;;;;;;;;;;;;;;;;5075499;28;19913;-60
2023/06/02 10:31:34;;;;;;;;;;;;;;;;;;5068214;28;19912;-61
2023/06/02 10:34:01;;;;;;;;;;;;;;;;;;5065368;28;20404;-61
2023/06/02 10:36:26;;;;;;;;;;;;;;;;;;5066974;28;19966;-61
2023/06/02 10:38:52;;;;;;;;;;;;;;;;;;5054998;28;20375;-61
2023/06/02 10:41:21;;;;;;;;;;;;;;;;;;5060857;28;19967;-61
2023/06/02 10:43:47;;;;;;;;;;;;;;;;;;5081090;28;19916;-60
2023/06/02 10:46:13;;;;;;;;;;;;;;;;;;5072430;28;19961;-62
2023/06/02 10:48:39;;;;;;;;;;;;;;;;;;5074013;28;19912;-61
2023/06/02 10:51:05;;;;;;;;;;;;;;;;;;5072176;28;19912;-61
2023/06/02 10:53:32;;;;;;;;;;;;;;;;;;5071944;28;19913;-61
2023/06/02 10:55:58;;;;;;;;;;;;;;;;;;5072558;28;19912;-61
2023/06/02 10:58:24;;;;;;;;;;;;;;;;;;5075781;28;20367;-59
2023/06/02 11:00:52;;;;;;;;;;;;;;;;;;5085389;28;19912;-61
2023/06/02 11:03:20;;;;;;;;;;;;;;;;;;5088306;28;20265;-60
2023/06/02 11:05:46;;;;;;;;;;;;;;;;;;5074168;28;20368;-60
2023/06/02 11:08:12;;;;;;;;;;;;;;;;;;5075929;28;19935;-61
2023/06/02 11:10:38;;;;;;;;;;;;;;;;;;5075536;28;19908;-60
2023/06/02 11:13:04;;;;;;;;;;;;;;;;;;5064651;28;19923;-60
2023/06/02 11:15:30;;;;;;;;;;;;;;;;;;5059306;28;19924;-60
2023/06/02 11:17:56;;;;;;;;;;;;;;;;;;5073080;28;19955;-61
2023/06/02 11:20:22;;;;;;;;;;;;;;;;;;5076102;28;20012;-61
2023/06/02 11:22:48;;;;;;;;;;;;;;;;;;5071925;28;19916;-61
2023/06/02 11:25:14;;;;;;;;;;;;;;;;;;5061558;28;19963;-64
2023/06/02 11:27:40;;;;;;;;;;;;;;;;;;5066982;28;19940;-61
2023/06/02 11:30:06;;;;;;;;;;;;;;;;;;5067713;28;19986;-60
2023/06/02 11:32:32;;;;;;;;;;;;;;;;;;5052185;28;19912;-61
2023/06/02 11:34:58;;;;;;;;;;;;;;;;;;5066196;28;19948;-60
2023/06/02 11:37:24;;;;;;;;;;;;;;;;;;5068037;28;19912;-61
2023/06/02 11:39:50;;;;;;;;;;;;;;;;;;5044210;28;20004;-60
2023/06/02 11:42:16;;;;;;;;;;;;;;;;;;5064658;28;20003;-62
2023/06/02 11:44:42;;;;;;;;;;;;;;;;;;5059897;28;20015;-60
2023/06/02 11:47:08;;;;;;;;;;;;;;;;;;5058458;28;19998;-60
2023/06/02 11:49:34;;;;;;;;;;;;;;;;;;5091017;28;19912;-60
2023/06/02 11:52:00;;;;;;;;;;;;;;;;;;5067470;28;19919;-61
2023/06/02 11:54:26;;;;;;;;;;;;;;;;;;5060825;28;19936;-60
2023/06/02 11:56:53;;;;;;;;;;;;;;;;;;5059196;28;19940;-61
2023/06/02 11:59:19;;;;;;;;;;;;;;;;;;5074867;28;19943;-61
2023/06/02 12:01:45;;;;;;;;;;;;;;;;;;5074838;28;19963;-60
2023/06/02 12:04:12;;;;;;;;;;;;;;;;;;5074461;28;19913;-60
2023/06/02 12:06:40;;;;;;;;;;;;;;;;;;5070537;28;20391;-61
2023/06/02 12:09:06;;;;;;;;;;;;;;;;;;5074838;28;19909;-60
2023/06/02 12:11:32;;;;;;;;;;;;;;;;;;5065676;28;19924;-61
2023/06/02 12:13:58;;;;;;;;;;;;;;;;;;5056509;28;20357;-60
2023/06/02 12:16:26;;;;;;;;;;;;;;;;;;5074515;28;20015;-60
2023/06/02 12:18:53;;;;;;;;;;;;;;;;;;5057501;28;19917;-60
2023/06/02 12:21:19;;;;;;;;;;;;;;;;;;5074102;28;19999;-60
2023/06/02 12:23:45;;;;;;;;;;;;;;;;;;5070856;28;20031;-60
2023/06/02 12:26:11;;;;;;;;;;;;;;;;;;5074047;28;19927;-60
2023/06/02 12:28:37;;;;;;;;;;;;;;;;;;5072212;28;19951;-60
2023/06/02 12:31:02;;;;;;;;;;;;;;;;;;5055960;28;20380;-60
2023/06/02 12:33:28;;;;;;;;;;;;;;;;;;5071469;28;20049;-61
2023/06/02 12:35:55;;;;;;;;;;;;;;;;;;5073855;28;19940;-61
2023/06/02 12:38:20;;;;;;;;;;;;;;;;;;5069719;28;19913;-60
2023/06/02 12:40:47;;;;;;;;;;;;;;;;;;5064867;28;19986;-60
2023/06/02 12:43:13;;;;;;;;;;;;;;;;;;5080366;28;20279;-60
2023/06/02 12:45:38;;;;;;;;;;;;;;;;;;5094404;28;19909;-61
2023/06/02 12:48:05;;;;;;;;;;;;;;;;;;5070674;28;20007;-61
2023/06/02 12:50:31;;;;;;;;;;;;;;;;;;5063056;28;19916;-61
2023/06/02 12:52:57;;;;;;;;;;;;;;;;;;5072385;28;19965;-60
2023/06/02 12:55:23;;;;;;;;;;;;;;;;;;5058463;28;19978;-61
2023/06/02 12:57:50;;;;;;;;;;;;;;;;;;5054103;28;19940;-61
2023/06/02 13:00:16;;;;;;;;;;;;;;;;;;5055545;28;19913;-61
2023/06/02 13:02:42;;;;;;;;;;;;;;;;;;5061819;28;20020;-61
2023/06/02 13:05:08;;;;;;;;;;;;;;;;;;5080859;28;20469;-62
2023/06/02 13:07:34;;;;;;;;;;;;;;;;;;5065412;28;19913;-59
2023/06/02 13:10:00;;;;;;;;;;;;;;;;;;5062221;28;19955;-62
2023/06/02 13:12:26;;;;;;;;;;;;;;;;;;5066465;28;20372;-61
2023/06/02 13:14:52;;;;;;;;;;;;;;;;;;5073294;28;19921;-59
2023/06/02 13:17:18;;;;;;;;;;;;;;;;;;5062877;28;20360;-61
2023/06/02 13:19:46;;;;;;;;;;;;;;;;;;5063275;28;19948;-61
2023/06/02 13:22:12;;;;;;;;;;;;;;;;;;5061763;28;19928;-59
2023/06/02 13:24:38;;;;;;;;;;;;;;;;;;5059002;28;19913;-59
2023/06/02 13:27:04;;;;;;;;;;;;;;;;;;5071359;28;20119;-60
2023/06/02 13:29:30;;;;;;;;;;;;;;;;;;5063460;28;19912;-59
2023/06/02 13:31:55;;;;;;;;;;;;;;;;;;5064226;28;20285;-59
2023/06/02 13:34:21;;;;;;;;;;;;;;;;;;5069786;28;19923;-59
2023/06/02 13:36:48;;;;;;;;;;;;;;;;;;5073512;28;19963;-60
2023/06/02 13:39:14;;;;;;;;;;;;;;;;;;5052316;28;19920;-59
2023/06/02 13:41:40;;;;;;;;;;;;;;;;;;5055720;28;19947;-59
2023/06/02 13:44:11;;;;;;;;;;;;;;;;;;5061106;28;20368;-60
2023/06/02 13:46:37;;;;;;;;;;;;;;;;;;5070320;28;20112;-60
2023/06/02 13:49:03;;;;;;;;;;;;;;;;;;5057665;28;20053;-60
2023/06/02 13:51:29;;;;;;;;;;;;;;;;;;5062757;28;19912;-60
2023/06/02 13:53:55;;;;;;;;;;;;;;;;;;5071161;28;19922;-60
2023/06/02 13:56:21;;;;;;;;;;;;;;;;;;5078039;28;20058;-59
2023/06/02 13:58:47;;;;;;;;;;;;;;;;;;5059449;28;19917;-60
2023/06/02 14:01:13;;;;;;;;;;;;;;;;;;5078817;28;20451;-59
2023/06/02 14:03:39;;;;;;;;;;;;;;;;;;5065283;28;19916;-60
2023/06/02 14:06:05;;;;;;;;;;;;;;;;;;5065195;28;19916;-59
2023/06/02 14:08:31;;;;;;;;;;;;;;;;;;5062650;28;19935;-60
2023/06/02 14:10:57;;;;;;;;;;;;;;;;;;5071544;28;20035;-60
2023/06/02 14:13:23;;;;;;;;;;;;;;;;;;5065758;28;19954;-61
2023/06/02 14:15:49;;;;;;;;;;;;;;;;;;5068814;28;19956;-61
2023/06/02 14:18:15;;;;;;;;;;;;;;;;;;5066782;28;20402;-61
2023/06/02 14:20:41;;;;;;;;;;;;;;;;;;5055677;28;19950;-60
2023/06/02 14:23:07;;;;;;;;;;;;;;;;;;5053019;28;19954;-61
2023/06/02 14:25:32;;;;;;;;;;;;;;;;;;5052367;28;20353;-60
2023/06/02 14:27:58;;;;;;;;;;;;;;;;;;5067551;28;20387;-61
2023/06/02 14:30:24;;;;;;;;;;;;;;;;;;5062255;28;19952;-61
2023/06/02 14:32:50;;;;;;;;;;;;;;;;;;5061734;28;19923;-60
2023/06/02 14:35:16;;;;;;;;;;;;;;;;;;5065976;28;19948;-60
2023/06/02 14:37:42;;;;;;;;;;;;;;;;;;5072100;28;20420;-61
2023/06/02 14:40:08;;;;;;;;;;;;;;;;;;5058015;28;19947;-60
2023/06/02 14:42:34;;;;;;;;;;;;;;;;;;5057960;28;19976;-68
2023/06/02 14:45:00;;;;;;;;;;;;;;;;;;5060256;28;19913;-68
2023/06/02 14:47:32;;;;;;;;;;;;;;;;;;5056420;28;19916;-68
2023/06/02 14:49:58;;;;;;;;;;;;;;;;;;5058216;28;19920;-69
2023/06/02 14:52:25;;;;;;;;;;;;;;;;;;5067935;28;19995;-68
2023/06/02 14:54:51;;;;;;;;;;;;;;;;;;5065946;28;19917;-67
2023/06/02 14:57:17;;;;;;;;;;;;;;;;;;5065804;28;19947;-68
2023/06/02 14:59:43;;;;;;;;;;;;;;;;;;5064655;28;20256;-67
2023/06/02 15:02:09;;;;;;;;;;;;;;;;;;5067080;28;19912;-68
2023/06/02 15:04:35;;;;;;;;;;;;;;;;;;5064628;28;20368;-69
2023/06/02 15:07:00;;;;;;;;;;;;;;;;;;5074891;28;19951;-67
2023/06/02 15:09:26;;;;;;;;;;;;;;;;;;5066462;28;19936;-67
2023/06/02 15:11:52;;;;;;;;;;;;;;;;;;5056605;28;20325;-67
2023/06/02 15:14:18;;;;;;;;;;;;;;;;;;5063888;28;20012;-69
2023/06/02 15:16:44;;;;;;;;;;;;;;;;;;5068180;28;19944;-68
2023/06/02 15:19:10;;;;;;;;;;;;;;;;;;5061616;28;20608;-67
2023/06/02 15:21:36;;;;;;;;;;;;;;;;;;5065554;28;19912;-67
2023/06/02 15:24:03;;;;;;;;;;;;;;;;;;5069408;28;20013;-67
2023/06/02 15:26:29;;;;;;;;;;;;;;;;;;5055555;28;19912;-67
2023/06/02 15:28:54;;;;;;;;;;;;;;;;;;5045681;28;19962;-67
2023/06/02 15:31:20;;;;;;;;;;;;;;;;;;5061209;28;20341;-67
2023/06/02 15:33:48;;;;;;;;;;;;;;;;;;5067166;28;21560;-68
2023/06/02 15:36:14;;;;;;;;;;;;;;;;;;5065914;28;20382;-67
2023/06/02 15:38:40;;;;;;;;;;;;;;;;;;5065200;28;20434;-67
2023/06/02 15:41:06;;;;;;;;;;;;;;;;;;5066232;28;19916;-67
2023/06/02 15:43:32;;;;;;;;;;;;;;;;;;5068034;28;20003;-67
2023/06/02 15:45:58;;;;;;;;;;;;;;;;;;5060068;28;21653;-67
2023/06/02 15:48:24;;;;;;;;;;;;;;;;;;5059653;28;19999;-67
2023/06/02 15:50:50;;;;;;;;;;;;;;;;;;5065761;28;19917;-67
2023/06/02 15:53:16;;;;;;;;;;;;;;;;;;5073904;28;19919;-67
2023/06/02 15:55:42;;;;;;;;;;;;;;;;;;5074985;28;19966;-67
2023/06/02 15:58:08;;;;;;;;;;;;;;;;;;5068391;28;20333;-67
2023/06/02 16:00:33;;;;;;;;;;;;;;;;;;5061545;28;19912;-68
2023/06/02 16:02:59;;;;;;;;;;;;;;;;;;5073119;28;19912;-68
2023/06/02 16:05:25;;;;;;;;;;;;;;;;;;5070535;28;19951;-68
2023/06/02 16:07:51;;;;;;;;;;;;;;;;;;5073437;28;20388;-67
2023/06/02 16:10:17;;;;;;;;;;;;;;;;;;5073131;28;19917;-69
2023/06/02 16:12:43;;;;;;;;;;;;;;;;;;5074032;28;19959;-69
2023/06/02 16:15:09;;;;;;;;;;;;;;;;;;5074164;28;19927;-69
2023/06/02 16:17:35;;;;;;;;;;;;;;;;;;5065718;28;19947;-69
2023/06/02 16:20:01;;;;;;;;;;;;;;;;;;5052105;28;20292;-69
2023/06/02 16:22:27;;;;;;;;;;;;;;;;;;5072434;28;19922;-69
2023/06/02 16:24:53;;;;;;;;;;;;;;;;;;5074784;28;20003;-68
2023/06/02 16:27:18;;;;;;;;;;;;;;;;;;5072494;28;19919;-67
2023/06/02 16:29:44;;;;;;;;;;;;;;;;;;5068092;28;19916;-69
2023/06/02 16:32:10;;;;;;;;;;;;;;;;;;5071952;28;19987;-69
2023/06/02 16:34:36;;;;;;;;;;;;;;;;;;5074158;28;19952;-68
2023/06/02 16:37:02;;;;;;;;;;;;;;;;;;5069642;28;20390;-69